createdAt,value
2019-04-23T00:04:07.230Z,47.30
2019-04-23T00:06:40.810Z,47.60
2019-04-23T00:09:09.228Z,47.70
2019-04-23T00:11:32.552Z,47.80
2019-04-23T00:14:05.998Z,48.70
2019-04-23T00:16:38.393Z,47.90
2019-04-23T00:19:10.274Z,47.70
2019-04-23T00:22:17.389Z,47.60
2019-04-23T00:27:29.286Z,47.90
2019-04-23T00:30:06.546Z,48.40
2019-04-23T00:32:23.132Z,47.60
2019-04-23T00:34:57.710Z,48.40
2019-04-23T00:42:25.746Z,47.90
2019-04-23T00:44:51.510Z,47.90
2019-04-23T00:47:25.643Z,49.00
2019-04-23T00:50:03.897Z,48.50
2019-04-23T00:52:30.518Z,48.00
2019-04-23T00:55:07.272Z,48.10
2019-04-23T00:57:32.618Z,48.00
2019-04-23T01:00:10.542Z,48.60
2019-04-23T01:05:04.631Z,48.00
2019-04-23T01:07:31.855Z,48.10
2019-04-23T01:10:08.356Z,47.90
2019-04-23T01:12:38.272Z,48.00
2019-04-23T01:15:16.529Z,48.00
2019-04-23T01:17:39.901Z,47.70
2019-04-23T01:20:14.613Z,48.10
2019-04-23T01:22:27.334Z,47.80
2019-04-23T01:25:09.772Z,47.90
2019-04-23T01:28:07.606Z,47.70
2019-04-23T01:30:40.654Z,48.60
2019-04-23T01:33:14.194Z,49.20
2019-04-23T01:35:52.960Z,48.70
2019-04-23T01:38:11.479Z,48.90
2019-04-23T01:40:46.104Z,49.60
2019-04-23T01:43:17.945Z,50.40
2019-04-23T01:45:43.781Z,49.70
2019-04-23T01:48:13.139Z,49.90
2019-04-23T01:50:48.692Z,50.40
2019-04-23T01:53:18.383Z,49.70
2019-04-23T01:55:46.916Z,50.00
2019-04-23T01:58:32.178Z,50.20
2019-04-23T02:00:47.497Z,50.30
2019-04-23T02:03:22.182Z,50.50
2019-04-23T02:06:00.034Z,50.90
2019-04-23T02:08:26.185Z,51.20
2019-04-23T02:13:32.382Z,51.60
2019-04-23T02:15:53.413Z,51.90
2019-04-23T02:18:43.915Z,52.30
2019-04-23T02:20:59.582Z,52.50
2019-04-23T02:24:00.102Z,52.90
2019-04-23T02:26:20.034Z,52.90
2019-04-23T02:31:44.557Z,54.10
2019-04-23T02:36:39.833Z,54.70
2019-04-23T02:39:26.403Z,54.90
2019-04-23T02:41:34.994Z,55.70
2019-04-23T02:46:45.412Z,56.60
2019-04-23T02:49:22.090Z,56.70
2019-04-23T02:51:42.458Z,57.00
2019-04-23T02:54:33.168Z,57.20
2019-04-23T02:56:51.442Z,58.30
2019-04-23T03:01:39.987Z,58.70
2019-04-23T03:06:55.863Z,59.50
2019-04-23T03:11:58.427Z,60.00
2019-04-23T03:14:33.447Z,60.30
2019-04-23T03:19:38.014Z,61.80
2019-04-23T03:25:23.195Z,64.20
2019-04-23T03:30:16.277Z,66.00
2019-04-23T03:34:26.490Z,65.00
2019-04-23T03:35:09.837Z,65.80
2019-04-23T03:43:01.308Z,67.90
2019-04-23T03:48:08.450Z,68.30
2019-04-23T03:50:39.438Z,69.00
2019-04-23T03:53:07.200Z,69.70
2019-04-23T03:55:37.373Z,70.80
2019-04-23T03:58:14.370Z,70.50
2019-04-23T04:00:45.904Z,71.30
2019-04-23T04:03:26.991Z,71.40
2019-04-23T04:06:03.645Z,70.60
2019-04-23T04:10:55.044Z,73.90
2019-04-23T04:13:20.031Z,71.90
2019-04-23T04:18:30.992Z,71.90
2019-04-23T04:20:49.381Z,74.30
2019-04-23T04:23:27.685Z,71.90
2019-04-23T04:25:49.920Z,72.50
2019-04-23T04:35:57.881Z,73.10
2019-04-23T04:38:36.467Z,73.50
2019-04-23T04:43:47.593Z,74.00
2019-04-23T04:46:05.390Z,74.60
2019-04-23T04:48:23.064Z,74.10
2019-04-23T04:51:00.345Z,75.20
2019-04-23T04:53:35.680Z,74.40
2019-04-23T04:55:54.888Z,74.60
2019-04-23T04:58:39.287Z,75.60
2019-04-23T05:01:01.411Z,74.50
2019-04-23T05:03:25.902Z,75.20
2019-04-23T05:06:05.011Z,75.20
2019-04-23T05:08:25.966Z,76.00
2019-04-23T05:11:01.746Z,75.20
2019-04-23T05:15:50.070Z,75.60
2019-04-23T05:23:42.749Z,77.90
2019-04-23T05:26:20.958Z,75.30
2019-04-23T05:28:57.130Z,75.50
2019-04-23T05:31:18.998Z,75.10
2019-04-23T05:33:52.341Z,75.40
2019-04-23T05:39:07.617Z,75.30
2019-04-23T05:41:26.969Z,75.80
2019-04-23T05:43:57.357Z,74.80
2019-04-23T05:46:33.120Z,75.00
2019-04-23T05:51:33.516Z,76.00
2019-04-23T05:53:51.356Z,73.00
2019-04-23T05:56:27.429Z,73.50
2019-04-23T05:59:04.177Z,74.10
2019-04-23T06:09:10.551Z,73.60
2019-04-23T06:16:42.657Z,69.20
2019-04-23T06:19:14.176Z,68.70
2019-04-23T06:21:52.934Z,68.10
2019-04-23T06:24:17.033Z,67.20
2019-04-23T06:29:19.379Z,71.00
2019-04-23T06:31:47.458Z,71.50
2019-04-23T06:34:17.835Z,71.30
2019-04-23T06:36:46.653Z,71.50
2019-04-23T06:39:12.964Z,73.10
2019-04-23T06:41:44.850Z,73.10
2019-04-23T06:44:19.286Z,72.90
2019-04-23T06:46:56.883Z,73.50
2019-04-23T06:49:30.647Z,73.10
2019-04-23T06:52:10.522Z,74.80
2019-04-23T06:54:36.139Z,73.90
2019-04-23T06:57:10.739Z,72.00
2019-04-23T06:59:27.750Z,73.40
2019-04-23T07:02:12.043Z,73.00
2019-04-23T07:04:36.077Z,73.00
2019-04-23T07:09:26.308Z,72.50
2019-04-23T07:14:38.659Z,70.50
2019-04-23T07:16:55.922Z,71.00
2019-04-23T07:19:39.454Z,68.60
2019-04-23T07:22:10.005Z,68.90
2019-04-23T07:24:36.280Z,68.40
2019-04-23T07:27:03.599Z,69.10
2019-04-23T07:29:52.744Z,68.70
2019-04-23T07:32:31.257Z,65.90
2019-04-23T07:35:11.650Z,67.10
2019-04-23T07:37:31.963Z,65.50
2019-04-23T07:40:22.932Z,65.70
2019-04-23T07:42:58.347Z,65.40
2019-04-23T07:45:47.086Z,68.20
2019-04-23T07:55:48.552Z,64.80
2019-04-23T07:58:14.363Z,67.80
2019-04-23T08:03:17.281Z,62.90
2019-04-23T08:05:44.059Z,60.50
2019-04-23T08:08:07.263Z,60.40
2019-04-23T08:10:53.867Z,62.80
2019-04-23T08:13:15.605Z,59.10
2019-04-23T08:23:58.623Z,58.70
2019-04-23T08:26:48.221Z,58.00
2019-04-23T08:29:29.370Z,56.20
2019-04-23T08:31:50.366Z,57.50
2019-04-23T08:36:48.616Z,57.40
2019-04-23T08:39:30.473Z,57.50
2019-04-23T08:42:10.975Z,58.20
2019-04-23T08:44:54.183Z,58.20
2019-04-23T08:47:17.121Z,57.60
2019-04-23T08:49:47.609Z,56.70
2019-04-23T08:52:18.340Z,54.60
2019-04-23T08:55:04.271Z,56.10
2019-04-23T08:57:18.317Z,53.10
2019-04-23T09:02:31.254Z,53.10
2019-04-23T09:10:04.697Z,52.50
2019-04-23T09:12:36.928Z,51.40
2019-04-23T09:15:13.022Z,50.40
2019-04-23T09:17:41.096Z,50.90
2019-04-23T09:22:36.447Z,49.10
2019-04-23T09:25:14.803Z,49.70
2019-04-23T09:27:39.830Z,48.90
2019-04-23T09:30:07.645Z,48.50
2019-04-23T09:32:36.731Z,46.90
2019-04-23T09:35:27.411Z,45.60
2019-04-23T09:38:16.530Z,46.20
2019-04-23T09:43:38.567Z,46.00
2019-04-23T09:46:27.323Z,45.60
2019-04-23T09:49:03.522Z,44.60
2019-04-23T09:53:57.725Z,41.60
2019-04-23T09:56:33.736Z,42.30
2019-04-23T09:59:01.217Z,40.40
2019-04-23T10:01:25.881Z,39.70
2019-04-23T10:03:45.094Z,38.80
2019-04-23T10:06:09.654Z,39.20
2019-04-23T10:08:36.412Z,38.40
2019-04-23T10:11:01.083Z,38.80
2019-04-23T10:13:29.668Z,39.40
2019-04-23T10:15:58.133Z,40.50
2019-04-23T10:18:29.100Z,39.10
2019-04-23T10:20:56.950Z,39.50
2019-04-23T10:23:29.551Z,39.40
2019-04-23T10:25:58.259Z,38.40
2019-04-23T10:28:29.844Z,35.80
2019-04-23T10:30:58.607Z,33.90
2019-04-23T10:33:27.535Z,34.80
2019-04-23T10:36:02.334Z,34.90
2019-04-23T10:38:26.709Z,34.90
2019-04-23T10:40:56.233Z,33.20
2019-04-23T10:43:27.664Z,32.50
2019-04-23T10:46:23.195Z,33.10
2019-04-23T10:49:31.779Z,32.40
2019-04-23T10:51:51.606Z,31.00
2019-04-23T11:04:54.092Z,32.00
2019-04-23T11:07:26.951Z,31.40
2019-04-23T11:20:26.121Z,27.60
2019-04-23T11:27:43.378Z,29.10
2019-04-23T11:30:25.854Z,28.10
2019-04-23T11:35:22.774Z,28.10
2019-04-23T11:40:15.863Z,27.70
2019-04-23T11:42:51.373Z,26.90
2019-04-23T11:45:26.328Z,27.80
2019-04-23T11:48:23.969Z,27.60
2019-04-23T11:50:27.844Z,27.90
2019-04-23T11:57:59.189Z,26.60
2019-04-23T12:00:31.491Z,27.10
2019-04-23T12:03:01.738Z,27.70
2019-04-23T12:06:17.219Z,27.10
2019-04-23T12:09:17.737Z,27.00
2019-04-23T12:11:52.806Z,27.10
2019-04-23T12:22:16.859Z,26.70
2019-04-23T12:27:13.852Z,28.00
2019-04-23T12:35:04.299Z,26.90
2019-04-23T12:37:49.374Z,27.00
2019-04-23T12:40:19.871Z,28.00
2019-04-23T12:42:59.064Z,27.60
2019-04-23T12:48:30.748Z,28.90
2019-04-23T12:50:50.132Z,28.90
2019-04-23T12:53:29.291Z,29.00
2019-04-23T12:58:20.358Z,28.20
2019-04-23T13:00:57.773Z,29.20
2019-04-23T13:06:01.781Z,28.30
2019-04-23T13:08:39.237Z,28.40
2019-04-23T13:10:46.981Z,28.20
2019-04-23T13:13:24.214Z,27.00
2019-04-23T13:15:48.551Z,26.10
2019-04-23T13:18:23.697Z,27.50
2019-04-23T13:20:50.027Z,26.20
2019-04-23T13:31:12.988Z,23.70
2019-04-23T13:33:39.108Z,23.50
2019-04-23T13:36:18.852Z,24.40
2019-04-23T13:41:17.398Z,25.50
2019-04-23T13:43:41.009Z,24.70
2019-04-23T13:46:13.839Z,25.90
2019-04-23T13:48:36.332Z,25.20
2019-04-23T13:51:20.767Z,24.10
2019-04-23T13:54:01.719Z,24.80
2019-04-23T13:59:12.017Z,25.00
2019-04-23T14:01:30.868Z,25.10
2019-04-23T14:04:04.269Z,25.30
2019-04-23T14:06:36.637Z,26.80
2019-04-23T14:08:59.780Z,27.40
2019-04-23T14:19:06.910Z,27.30
2019-04-23T14:21:47.167Z,27.70
2019-04-23T14:24:31.716Z,28.10
2019-04-23T14:26:46.154Z,28.60
2019-04-23T14:29:31.912Z,29.70
2019-04-23T14:31:53.315Z,30.50
2019-04-23T14:34:19.349Z,29.60
2019-04-23T14:36:57.737Z,30.10
2019-04-23T14:41:53.342Z,30.10
2019-04-23T14:44:22.467Z,30.00
2019-04-23T14:47:07.438Z,31.10
2019-04-23T14:49:56.694Z,31.80
2019-04-23T14:52:12.257Z,32.00
2019-04-23T14:55:22.665Z,31.30
2019-04-23T14:59:54.030Z,32.90
2019-04-23T15:02:27.139Z,33.10
2019-04-23T15:04:56.469Z,33.60
2019-04-23T15:07:31.333Z,34.90
2019-04-23T15:10:06.536Z,34.80
2019-04-23T15:12:31.521Z,35.20
2019-04-23T15:17:36.217Z,34.50
2019-04-23T15:20:03.390Z,34.80
2019-04-23T15:22:42.432Z,34.40
2019-04-23T15:25:23.845Z,34.10
2019-04-23T15:29:58.281Z,34.50
2019-04-23T15:35:25.368Z,34.90
2019-04-23T15:38:10.404Z,34.80
2019-04-23T15:40:18.329Z,34.80
2019-04-23T15:42:52.021Z,34.70
2019-04-23T15:45:19.297Z,35.20
2019-04-23T15:47:49.317Z,35.00
2019-04-23T15:50:22.648Z,34.50
2019-04-23T15:55:12.308Z,35.30
2019-04-23T15:58:04.355Z,35.60
2019-04-23T16:00:13.000Z,35.30
2019-04-23T16:02:21.914Z,35.90
2019-04-23T16:04:53.175Z,34.40
2019-04-23T16:07:37.230Z,34.30
2019-04-23T16:12:54.714Z,33.80
2019-04-23T16:15:16.739Z,33.80
2019-04-23T16:18:07.882Z,33.80
2019-04-23T16:20:40.879Z,35.20
2019-04-23T16:22:58.023Z,35.90
2019-04-23T16:25:31.745Z,35.70
2019-04-23T16:28:09.444Z,36.60
2019-04-23T16:33:11.146Z,36.40
2019-04-23T16:35:58.480Z,36.70
2019-04-23T16:38:34.213Z,37.00
2019-04-23T16:40:49.382Z,37.40
2019-04-23T16:43:19.816Z,37.20
2019-04-23T16:46:04.148Z,37.50
2019-04-23T16:48:40.583Z,37.40
2019-04-23T16:51:16.688Z,37.70
2019-04-23T16:56:18.650Z,38.20
2019-04-23T16:58:33.559Z,38.50
2019-04-23T17:01:07.240Z,37.30
2019-04-23T17:06:03.958Z,37.30
2019-04-23T17:13:30.096Z,37.20
2019-04-23T17:16:09.933Z,37.90
2019-04-23T17:18:33.222Z,37.90
2019-04-23T17:20:56.021Z,38.50
2019-04-23T17:23:38.828Z,39.40
2019-04-23T17:26:02.740Z,39.70
2019-04-23T17:28:31.440Z,39.50
2019-04-23T17:31:18.894Z,40.10
2019-04-23T17:33:34.733Z,40.70
2019-04-23T17:38:56.977Z,41.70
2019-04-23T17:44:18.452Z,42.20
2019-04-23T17:46:34.220Z,42.20
2019-04-23T17:49:10.917Z,42.60
2019-04-23T17:51:40.410Z,42.60
2019-04-23T17:54:17.418Z,42.60
2019-04-23T17:57:04.527Z,43.10
2019-04-23T17:59:22.995Z,43.40
2019-04-23T18:01:54.276Z,43.10
2019-04-23T18:04:23.942Z,44.10
2019-04-23T18:06:53.595Z,44.00
2019-04-23T18:11:47.589Z,44.80
2019-04-23T18:14:13.241Z,45.00
2019-04-23T18:16:51.712Z,45.80
2019-04-23T18:19:12.728Z,45.60
2019-04-23T18:24:50.693Z,46.20
2019-04-23T18:27:21.073Z,46.60
2019-04-23T18:30:02.726Z,47.00
2019-04-23T18:33:12.233Z,48.50
2019-04-23T18:37:52.385Z,51.80
2019-04-23T18:40:21.465Z,53.00
2019-04-23T18:42:53.485Z,56.40
2019-04-23T18:45:23.949Z,58.70
2019-04-23T18:50:29.202Z,62.20
2019-04-23T18:55:29.437Z,64.30
2019-04-23T18:58:03.337Z,65.80
2019-04-23T19:00:24.959Z,66.70
2019-04-23T19:03:14.592Z,68.70
2019-04-23T19:06:06.970Z,73.00
2019-04-23T19:11:37.306Z,72.90
2019-04-23T19:13:51.140Z,76.70
2019-04-23T19:16:31.634Z,75.40
2019-04-23T19:18:56.546Z,76.30
2019-04-23T19:21:46.836Z,75.90
2019-04-23T19:26:45.850Z,77.00
2019-04-23T19:28:58.048Z,78.80
2019-04-23T19:31:55.627Z,79.20
2019-04-23T19:44:24.578Z,79.30
2019-04-23T19:46:58.256Z,78.90
2019-04-23T19:49:25.383Z,80.50
2019-04-23T19:51:47.849Z,81.70
2019-04-23T19:54:25.935Z,81.00
2019-04-23T19:59:23.334Z,77.30
2019-04-23T20:01:55.362Z,77.30
2019-04-23T20:04:18.269Z,78.00
2019-04-23T20:07:04.389Z,79.60
2019-04-23T20:14:19.308Z,79.60
2019-04-23T20:19:30.104Z,81.00
2019-04-23T20:22:00.215Z,81.50
2019-04-23T20:24:44.380Z,82.10
2019-04-23T20:35:11.520Z,80.80
2019-04-23T20:38:25.281Z,80.10
2019-04-23T20:40:24.310Z,79.40
2019-04-23T20:45:41.021Z,79.60
2019-04-23T20:50:34.522Z,81.10
2019-04-23T20:52:57.464Z,79.80
2019-04-23T20:56:07.232Z,81.30
2019-04-23T20:58:44.019Z,81.10
2019-04-23T21:01:18.710Z,80.60
2019-04-23T21:03:55.212Z,83.10
2019-04-23T21:09:11.280Z,81.10
2019-04-23T21:11:12.657Z,81.50
2019-04-23T21:14:01.666Z,82.20
2019-04-23T21:16:36.020Z,82.20
2019-04-23T21:19:02.680Z,82.40
2019-04-23T21:21:42.963Z,83.40
2019-04-23T21:24:07.125Z,83.10
2019-04-23T21:26:41.938Z,83.60
2019-04-23T21:29:07.347Z,84.00
2019-04-23T21:34:19.465Z,84.40
2019-04-23T21:36:49.424Z,84.80
2019-04-23T21:44:59.374Z,86.30
2019-04-23T21:47:45.978Z,86.90
2019-04-23T21:50:19.239Z,88.60
2019-04-23T21:52:40.406Z,88.00
2019-04-23T21:55:10.934Z,89.00
2019-04-23T21:58:10.495Z,88.60
2019-04-23T22:00:17.311Z,89.40
2019-04-23T22:02:54.080Z,90.30
2019-04-23T22:05:28.404Z,90.00
2019-04-23T22:07:57.827Z,90.40
2019-04-23T22:10:42.372Z,90.80
2019-04-23T22:13:02.570Z,90.50
2019-04-23T22:15:43.173Z,90.40
2019-04-23T22:17:49.597Z,91.10
2019-04-23T22:20:27.824Z,91.10
2019-04-23T22:23:05.106Z,91.20
2019-04-23T22:25:22.343Z,90.90
2019-04-23T22:27:54.794Z,91.00
2019-04-23T22:33:02.586Z,91.80
2019-04-23T22:35:24.309Z,91.60
2019-04-23T22:38:09.745Z,92.30
2019-04-23T22:40:25.920Z,92.30
2019-04-23T22:45:40.208Z,92.00
2019-04-23T22:48:04.723Z,92.20
2019-04-23T22:50:44.581Z,91.90
2019-04-23T22:53:10.969Z,91.60
2019-04-23T22:55:47.594Z,91.60
2019-04-23T22:58:09.749Z,91.80
2019-04-23T23:00:58.901Z,91.70
2019-04-23T23:03:33.741Z,91.80
2019-04-23T23:06:11.069Z,91.70
2019-04-23T23:11:05.921Z,92.20
2019-04-23T23:16:21.593Z,92.00
2019-04-23T23:18:35.849Z,92.00
2019-04-23T23:21:16.350Z,92.20
2019-04-23T23:23:43.978Z,92.30
2019-04-23T23:28:40.803Z,92.80
2019-04-23T23:36:12.539Z,93.30
2019-04-23T23:38:52.676Z,93.60
2019-04-23T23:43:54.414Z,93.80
2019-04-23T23:46:22.122Z,93.90
2019-04-23T23:48:42.276Z,93.60
2019-04-23T23:56:15.803Z,94.10
